createdAt,value
2019-01-04T00:01:41.382Z,98020.63
2019-01-04T00:04:14.595Z,98346.67
2019-01-04T00:06:45.303Z,98345.87
2019-01-04T00:09:14.571Z,98351.99
2019-01-04T00:11:43.659Z,98361.09
2019-01-04T00:14:12.789Z,98347.37
2019-01-04T00:16:41.920Z,98347.92
2019-01-04T00:19:11.035Z,98345.30
2019-01-04T00:21:41.668Z,98352.14
2019-01-04T00:24:16.705Z,98344.91
2019-01-04T00:26:48.802Z,98348.03
2019-01-04T00:29:18.334Z,98339.52
2019-01-04T00:31:48.544Z,98335.16
2019-01-04T00:34:17.814Z,98337.86
2019-01-04T00:36:49.871Z,98342.67
2019-01-04T00:39:18.985Z,98341.45
2019-01-04T00:41:48.286Z,98339.61
2019-01-04T00:44:17.422Z,98340.32
2019-01-04T00:46:46.621Z,98339.89
2019-01-04T00:49:15.734Z,98336.17
2019-01-04T00:51:44.956Z,98333.74
2019-01-04T00:54:15.856Z,98336.77
2019-01-04T00:57:17.500Z,98340.50
2019-01-04T01:00:31.094Z,98339.44
2019-01-04T01:03:41.235Z,98342.14
2019-01-04T01:06:46.921Z,98336.91
2019-01-04T01:09:40.995Z,98276.98
2019-01-04T01:12:43.235Z,98342.94
2019-01-04T01:15:47.542Z,98345.67
2019-01-04T01:19:16.528Z,98332.72
2019-01-04T01:22:42.223Z,98329.03
2019-01-04T01:25:41.557Z,98326.52
2019-01-04T01:28:53.757Z,98319.66
2019-01-04T01:31:58.985Z,98332.03
2019-01-04T01:35:11.272Z,98318.95
2019-01-04T01:38:25.070Z,98318.03
2019-01-04T01:41:39.068Z,98330.44
2019-01-04T01:44:37.109Z,98331.10
2019-01-04T01:47:24.145Z,98322.27
2019-01-04T01:50:31.371Z,98324.29
2019-01-04T01:53:00.487Z,98321.61
2019-01-04T01:55:31.348Z,98317.83
2019-01-04T01:58:04.214Z,98316.56
2019-01-04T02:00:38.378Z,98310.16
2019-01-04T02:03:08.016Z,98311.11
2019-01-04T02:05:43.069Z,98317.94
2019-01-04T02:08:12.449Z,98306.66
2019-01-04T02:10:42.999Z,98313.38
2019-01-04T02:13:14.557Z,98313.71
2019-01-04T02:15:45.735Z,98308.95
2019-01-04T02:18:15.137Z,98317.78
2019-01-04T02:20:44.366Z,98320.55
2019-01-04T02:23:14.214Z,98322.68
2019-01-04T02:25:45.063Z,98323.64
2019-01-04T02:28:15.287Z,98321.86
2019-01-04T02:30:46.956Z,98321.53
2019-01-04T02:33:16.436Z,98320.09
2019-01-04T02:35:47.073Z,98327.76
2019-01-04T02:38:16.525Z,98331.84
2019-01-04T02:40:48.131Z,98342.17
2019-01-04T02:43:17.300Z,98331.91
2019-01-04T02:45:46.346Z,98332.73
2019-01-04T02:48:17.184Z,98330.47
2019-01-04T02:50:49.268Z,98335.07
2019-01-04T02:53:18.475Z,98338.19
2019-01-04T02:55:47.579Z,98328.52
2019-01-04T02:58:17.479Z,98332.62
2019-01-04T03:00:46.677Z,98324.55
2019-01-04T03:03:15.773Z,98324.14
2019-01-04T03:05:44.978Z,98326.74
2019-01-04T03:08:14.061Z,98324.00
2019-01-04T03:10:43.398Z,98316.87
2019-01-04T03:13:17.187Z,98317.53
2019-01-04T03:15:49.371Z,98314.83
2019-01-04T03:18:18.481Z,98311.42
2019-01-04T03:20:47.612Z,98306.16
2019-01-04T03:23:18.355Z,98298.95
2019-01-04T03:25:48.648Z,98296.33
2019-01-04T03:28:19.269Z,98232.53
2019-01-04T03:30:48.393Z,98296.63
2019-01-04T03:33:17.799Z,98290.23
2019-01-04T03:35:48.022Z,98288.33
2019-01-04T03:38:17.580Z,98284.57
2019-01-04T03:40:46.670Z,98279.45
2019-01-04T03:43:16.078Z,98283.75
2019-01-04T03:45:45.181Z,98297.30
2019-01-04T03:48:16.446Z,98289.80
2019-01-04T03:50:47.857Z,98292.00
2019-01-04T03:53:16.950Z,98291.16
2019-01-04T03:55:46.357Z,98296.47
2019-01-04T03:58:17.312Z,98300.84
2019-01-04T04:00:47.406Z,98304.80
2019-01-04T04:03:19.663Z,98310.58
2019-01-04T04:05:48.767Z,98317.78
2019-01-04T04:08:20.000Z,98310.98
2019-01-04T04:10:52.156Z,98308.12
2019-01-04T04:13:21.390Z,98299.53
2019-01-04T04:15:50.491Z,98292.78
2019-01-04T04:18:20.755Z,98302.06
2019-01-04T04:20:51.819Z,98305.35
2019-01-04T04:23:20.942Z,98332.72
2019-01-04T04:25:50.043Z,98307.03
2019-01-04T04:28:23.558Z,98309.74
2019-01-04T04:30:56.904Z,98306.98
2019-01-04T04:33:27.443Z,98315.84
2019-01-04T04:35:56.669Z,98318.41
2019-01-04T04:38:31.919Z,98323.41
2019-01-04T04:41:04.127Z,98325.91
2019-01-04T04:43:34.987Z,98320.02
2019-01-04T04:46:06.150Z,98321.33
2019-01-04T04:48:35.264Z,98314.66
2019-01-04T04:51:04.375Z,98311.08
2019-01-04T04:53:33.463Z,98309.83
2019-01-04T04:56:02.579Z,98306.41
2019-01-04T04:58:33.349Z,98308.34
2019-01-04T05:01:02.507Z,98304.47
2019-01-04T05:03:31.665Z,98301.80
2019-01-04T05:06:00.772Z,98298.77
2019-01-04T05:08:29.866Z,98300.19
2019-01-04T05:11:04.203Z,98298.86
2019-01-04T05:13:33.287Z,98301.70
2019-01-04T05:16:02.408Z,98301.17
2019-01-04T05:18:34.429Z,98294.16
2019-01-04T05:21:03.523Z,98295.47
2019-01-04T05:23:44.029Z,98301.61
2019-01-04T05:26:13.238Z,98293.83
2019-01-04T05:28:42.313Z,98297.50
2019-01-04T05:31:11.834Z,98302.81
2019-01-04T05:33:46.123Z,98301.37
2019-01-04T05:36:19.794Z,98301.61
2019-01-04T05:38:48.973Z,98291.45
2019-01-04T05:41:24.646Z,98291.00
2019-01-04T05:43:55.901Z,98287.49
2019-01-04T05:46:25.031Z,98286.48
2019-01-04T05:48:57.186Z,98297.28
2019-01-04T05:51:26.282Z,98304.33
2019-01-04T05:53:58.803Z,98009.39
2019-01-04T05:56:27.931Z,98301.31
2019-01-04T05:58:57.036Z,98299.86
2019-01-04T06:01:27.855Z,98292.16
2019-01-04T06:03:57.134Z,98318.75
2019-01-04T06:06:26.439Z,98292.70
2019-01-04T06:08:57.132Z,98292.27
2019-01-04T06:11:26.268Z,98298.93
2019-01-04T06:13:55.356Z,98289.41
2019-01-04T06:16:24.486Z,98293.22
2019-01-04T06:18:53.639Z,98289.03
2019-01-04T06:21:24.491Z,98289.27
2019-01-04T06:23:53.958Z,98290.19
2019-01-04T06:26:23.055Z,98293.22
2019-01-04T06:28:52.177Z,98295.67
2019-01-04T06:31:22.997Z,98289.34
2019-01-04T06:33:52.621Z,98289.02
2019-01-04T06:36:24.663Z,98286.89
2019-01-04T06:38:56.289Z,98290.16
2019-01-04T06:41:25.419Z,98295.52
2019-01-04T06:43:55.524Z,98300.59
2019-01-04T06:46:24.626Z,98297.05
2019-01-04T06:48:56.294Z,98306.83
2019-01-04T06:51:27.962Z,98302.91
2019-01-04T06:53:59.053Z,98315.20
2019-01-04T06:56:34.609Z,98318.54
2019-01-04T06:59:05.295Z,98318.38
2019-01-04T07:01:40.383Z,98314.73
2019-01-04T07:04:09.534Z,98317.94
2019-01-04T07:06:38.680Z,98313.88
2019-01-04T07:09:07.856Z,98316.95
2019-01-04T07:11:38.618Z,98319.03
2019-01-04T07:14:11.061Z,98328.38
2019-01-04T07:16:40.384Z,98324.07
2019-01-04T07:19:09.575Z,98323.94
2019-01-04T07:24:29.313Z,98327.05
2019-01-04T07:26:58.408Z,98338.30
2019-01-04T07:29:28.945Z,98346.73
2019-01-04T07:32:04.270Z,98347.72
2019-01-04T07:34:33.381Z,98348.06
2019-01-04T07:37:02.776Z,98349.52
2019-01-04T07:39:36.449Z,98359.48
2019-01-04T07:42:05.598Z,98357.56
2019-01-04T07:44:36.045Z,98356.21
2019-01-04T07:47:24.872Z,98358.89
2019-01-04T07:49:53.970Z,98352.64
2019-01-04T07:52:24.273Z,98351.83
2019-01-04T07:54:56.822Z,98345.75
2019-01-04T07:57:26.324Z,98343.99
2019-01-04T07:59:55.443Z,98346.77
2019-01-04T08:02:45.756Z,98341.02
2019-01-04T08:05:22.499Z,98343.39
2019-01-04T08:07:53.228Z,98351.11
2019-01-04T08:10:22.387Z,98357.69
2019-01-04T08:12:52.217Z,98356.73
2019-01-04T08:15:23.417Z,98358.59
2019-01-04T08:17:52.742Z,98354.37
2019-01-04T08:20:25.245Z,98357.13
2019-01-04T08:22:58.758Z,98365.00
2019-01-04T08:25:29.135Z,98365.38
2019-01-04T08:28:01.411Z,98368.14
2019-01-04T08:30:35.028Z,98367.27
2019-01-04T08:33:07.189Z,98367.72
2019-01-04T08:35:39.953Z,98370.38
2019-01-04T08:38:10.194Z,98368.97
2019-01-04T08:40:39.307Z,98371.34
2019-01-04T08:43:08.396Z,98377.73
2019-01-04T08:45:41.750Z,98379.17
2019-01-04T08:48:14.079Z,98375.25
2019-01-04T08:50:43.190Z,98369.28
2019-01-04T08:53:12.337Z,98370.63
2019-01-04T08:55:41.463Z,98364.40
2019-01-04T08:58:10.703Z,98363.46
2019-01-04T09:00:40.913Z,98357.59
2019-01-04T09:03:10.031Z,98035.50
2019-01-04T09:05:44.033Z,98358.41
2019-01-04T09:08:14.404Z,98355.34
2019-01-04T09:10:55.793Z,98354.55
2019-01-04T09:13:47.363Z,98353.89
2019-01-04T09:16:18.701Z,98356.41
2019-01-04T09:18:50.990Z,98353.77
2019-01-04T09:21:21.512Z,98003.33
2019-01-04T09:23:53.161Z,98347.80
2019-01-04T09:26:23.992Z,98349.71
2019-01-04T09:28:58.951Z,98343.02
2019-01-04T09:31:34.250Z,98345.70
2019-01-04T09:34:04.141Z,98344.19
2019-01-04T09:36:33.425Z,98335.98
2019-01-04T09:39:03.344Z,98330.67
2019-01-04T09:41:38.080Z,98333.23
2019-01-04T09:44:08.375Z,98338.03
2019-01-04T09:46:40.802Z,98340.50
2019-01-04T09:49:10.044Z,98330.78
2019-01-04T09:51:39.145Z,98336.41
2019-01-04T09:54:12.347Z,98338.75
2019-01-04T09:56:41.453Z,98346.47
2019-01-04T09:59:13.660Z,98340.83
2019-01-04T10:01:45.325Z,98336.50
2019-01-04T10:04:15.644Z,98335.64
2019-01-04T10:06:44.763Z,98333.03
2019-01-04T10:09:17.820Z,98330.84
2019-01-04T10:11:47.479Z,98327.01
2019-01-04T10:14:16.935Z,98323.17
2019-01-04T10:16:46.083Z,98318.27
2019-01-04T10:19:17.964Z,98320.94
2019-01-04T10:21:50.103Z,98317.48
2019-01-04T10:24:19.395Z,98321.49
2019-01-04T10:26:54.710Z,98312.37
2019-01-04T10:29:23.931Z,98314.48
2019-01-04T10:31:53.049Z,98310.48
2019-01-04T10:34:25.103Z,98307.89
2019-01-04T10:36:57.116Z,98292.72
2019-01-04T10:39:26.257Z,98299.30
2019-01-04T10:41:58.542Z,98299.00
2019-01-04T10:44:27.663Z,98301.12
2019-01-04T10:47:07.236Z,98292.50
2019-01-04T10:49:36.427Z,98282.00
2019-01-04T10:52:05.642Z,98283.98
2019-01-04T10:54:38.260Z,98279.39
2019-01-04T10:57:07.648Z,98287.34
2019-01-04T10:59:36.743Z,98291.95
2019-01-04T11:02:06.055Z,98286.89
2019-01-04T11:04:44.664Z,98284.02
2019-01-04T11:07:18.223Z,98283.02
2019-01-04T11:09:52.769Z,98282.20
2019-01-04T11:12:24.166Z,98319.22
2019-01-04T11:14:53.318Z,98280.59
2019-01-04T11:17:24.971Z,98286.20
2019-01-04T11:19:54.168Z,98286.58
2019-01-04T11:23:11.314Z,98279.33
2019-01-04T11:26:06.348Z,98279.60
2019-01-04T11:29:16.952Z,98269.84
2019-01-04T11:32:25.551Z,98273.66
2019-01-04T11:35:26.771Z,98273.23
2019-01-04T11:38:33.544Z,98270.86
2019-01-04T11:41:54.584Z,98264.99
2019-01-04T11:45:26.587Z,98251.38
2019-01-04T11:48:33.923Z,98245.70
2019-01-04T11:51:28.377Z,98242.47
2019-01-04T11:53:59.467Z,98238.28
2019-01-04T11:56:35.516Z,98239.72
2019-01-04T11:59:07.098Z,98243.74
2019-01-04T12:01:36.257Z,97946.87
2019-01-04T12:04:05.379Z,98239.76
2019-01-04T12:06:34.521Z,98238.66
2019-01-04T12:09:04.577Z,98239.34
2019-01-04T12:11:33.668Z,98232.38
2019-01-04T12:14:04.342Z,98229.71
2019-01-04T12:16:33.578Z,98230.03
2019-01-04T12:19:04.088Z,98227.20
2019-01-04T12:21:37.165Z,98224.08
2019-01-04T12:24:13.710Z,98211.23
2019-01-04T12:26:42.878Z,98209.17
2019-01-04T12:29:11.994Z,98212.11
2019-01-04T12:31:41.170Z,98201.84
2019-01-04T12:34:16.639Z,98195.45
2019-01-04T12:36:45.957Z,98197.25
2019-01-04T12:39:17.870Z,98210.14
2019-01-04T12:41:50.001Z,98212.52
2019-01-04T12:44:19.379Z,98209.94
2019-01-04T12:46:49.802Z,98209.41
2019-01-04T12:49:20.467Z,98217.10
2019-01-04T12:51:49.553Z,98212.45
2019-01-04T12:54:18.678Z,98212.58
2019-01-04T12:56:47.776Z,98206.34
2019-01-04T12:59:19.306Z,98203.89
2019-01-04T13:01:48.968Z,98199.40
2019-01-04T13:04:22.202Z,98194.66
2019-01-04T13:06:54.175Z,98200.37
2019-01-04T13:09:24.865Z,98194.67
2019-01-04T13:11:57.003Z,98188.85
2019-01-04T13:14:26.074Z,98186.66
2019-01-04T13:16:56.270Z,98189.95
2019-01-04T13:19:27.182Z,98174.00
2019-01-04T13:21:56.696Z,98174.70
2019-01-04T13:24:27.639Z,98180.17
2019-01-04T13:26:57.268Z,98156.59
2019-01-04T13:29:26.419Z,98174.72
2019-01-04T13:31:55.505Z,98181.98
2019-01-04T13:34:24.598Z,98175.47
2019-01-04T13:36:55.781Z,98173.41
2019-01-04T13:39:27.921Z,98174.28
2019-01-04T13:42:00.304Z,98175.44
2019-01-04T13:44:30.040Z,98178.00
2019-01-04T13:47:00.189Z,98167.58
2019-01-04T13:49:32.772Z,98178.05
2019-01-04T13:52:01.997Z,98170.05
2019-01-04T13:54:31.417Z,98177.63
2019-01-04T13:57:03.284Z,98171.53
2019-01-04T13:59:35.218Z,98170.75
2019-01-04T14:02:06.498Z,98165.51
2019-01-04T14:04:36.123Z,98154.11
2019-01-04T14:07:05.348Z,98151.68
2019-01-04T14:09:34.848Z,98146.42
2019-01-04T14:12:04.331Z,98134.86
2019-01-04T14:14:33.452Z,98128.89
2019-01-04T14:17:02.540Z,98127.97
2019-01-04T14:19:31.647Z,98122.94
2019-01-04T14:22:10.992Z,98133.77
2019-01-04T14:24:31.739Z,98137.98
2019-01-04T14:27:00.834Z,98128.84
2019-01-04T14:29:29.935Z,98119.03
2019-01-04T14:31:59.114Z,98097.69
2019-01-04T14:34:28.983Z,98097.19
2019-01-04T14:36:58.463Z,98106.92
2019-01-04T14:39:27.581Z,98116.05
2019-01-04T14:41:57.109Z,98105.30
2019-01-04T14:44:32.301Z,98109.79
2019-01-04T14:47:05.268Z,98094.55
2019-01-04T14:49:36.878Z,98093.20
2019-01-04T14:52:09.241Z,98094.09
2019-01-04T14:54:38.512Z,98095.65
2019-01-04T14:57:08.021Z,98099.11
2019-01-04T14:59:37.857Z,98128.48
2019-01-04T15:02:09.576Z,98100.70
2019-01-04T15:04:39.425Z,98110.41
2019-01-04T15:07:08.605Z,98105.21
2019-01-04T15:09:40.908Z,98096.64
2019-01-04T15:12:10.853Z,98126.03
2019-01-04T15:14:40.003Z,98069.14
2019-01-04T15:17:09.541Z,98070.76
2019-01-04T15:19:38.864Z,98056.98
2019-01-04T15:22:11.236Z,98059.63
2019-01-04T15:24:40.339Z,98051.20
2019-01-04T15:27:12.296Z,98053.59
2019-01-04T15:29:41.433Z,98039.05
2019-01-04T15:32:10.566Z,98027.63
2019-01-04T15:34:41.297Z,98020.75
2019-01-04T15:37:10.750Z,98017.56
2019-01-04T15:39:40.929Z,98011.92
2019-01-04T15:42:11.509Z,98014.63
2019-01-04T15:44:42.713Z,98028.17
2019-01-04T15:47:13.241Z,98027.80
2019-01-04T15:49:42.349Z,98032.56
2019-01-04T15:52:11.735Z,98027.12
2019-01-04T15:54:41.200Z,98021.25
2019-01-04T15:57:11.894Z,98035.92
2019-01-04T15:59:47.108Z,98032.25
2019-01-04T16:02:17.827Z,98037.73
2019-01-04T16:04:48.442Z,98041.09
2019-01-04T16:07:20.264Z,98045.92
2019-01-04T16:09:49.399Z,98050.41
2019-01-04T16:12:20.262Z,96499.58
2019-01-04T16:14:51.967Z,98064.83
2019-01-04T16:17:20.446Z,98066.40
2019-01-04T16:19:49.608Z,98057.94
2019-01-04T16:22:18.855Z,98057.86
2019-01-04T16:24:47.985Z,98059.25
2019-01-04T16:27:20.116Z,98062.47
2019-01-04T16:29:52.915Z,98060.80
2019-01-04T16:32:26.194Z,98062.55
2019-01-04T16:34:55.321Z,98064.95
2019-01-04T16:37:28.818Z,98064.63
2019-01-04T16:40:01.055Z,98083.23
2019-01-04T16:42:30.188Z,98082.34
2019-01-04T16:45:13.519Z,98080.51
2019-01-04T16:47:30.226Z,98074.21
2019-01-04T16:50:00.595Z,98077.69
2019-01-04T16:52:30.885Z,98075.37
2019-01-04T16:55:00.167Z,98077.72
2019-01-04T16:57:29.360Z,98077.67
2019-01-04T16:59:58.539Z,98076.03
2019-01-04T17:02:27.616Z,98072.75
2019-01-04T17:04:56.733Z,98067.41
2019-01-04T17:07:26.700Z,98061.54
2019-01-04T17:09:55.838Z,98060.64
2019-01-04T17:12:24.922Z,98068.61
2019-01-04T17:14:55.301Z,98065.37
2019-01-04T17:17:31.035Z,98063.08
2019-01-04T17:20:01.967Z,98060.88
2019-01-04T17:22:31.049Z,98072.37
2019-01-04T17:25:00.236Z,98068.88
2019-01-04T17:27:29.419Z,98082.89
2019-01-04T17:29:58.944Z,98087.13
2019-01-04T17:32:33.180Z,98093.41
2019-01-04T17:35:08.322Z,98097.49
2019-01-04T17:37:40.263Z,98088.69
2019-01-04T17:40:15.300Z,98096.25
2019-01-04T17:42:47.925Z,98100.19
2019-01-04T17:45:17.424Z,98096.00
2019-01-04T17:47:54.081Z,98084.77
2019-01-04T17:50:23.158Z,98078.49
2019-01-04T17:52:53.357Z,98075.95
2019-01-04T17:55:23.746Z,98077.21
2019-01-04T17:57:59.007Z,98081.84
2019-01-04T18:00:28.092Z,98076.95
2019-01-04T18:03:00.765Z,98075.41
2019-01-04T18:05:28.207Z,98069.07
2019-01-04T18:07:57.301Z,98080.84
2019-01-04T18:10:26.710Z,98073.52
2019-01-04T18:12:55.832Z,98055.73
2019-01-04T18:15:27.740Z,98065.16
2019-01-04T18:18:01.539Z,98059.54
2019-01-04T18:20:30.635Z,98058.77
2019-01-04T18:23:01.223Z,98055.80
2019-01-04T18:25:31.965Z,98061.62
2019-01-04T18:28:02.069Z,98066.95
2019-01-04T18:30:34.786Z,98072.11
2019-01-04T18:33:03.908Z,98066.55
2019-01-04T18:35:33.007Z,98070.95
2019-01-04T18:38:02.101Z,98073.91
2019-01-04T18:40:32.386Z,98074.45
2019-01-04T18:43:03.318Z,98074.84
2019-01-04T18:45:32.505Z,98071.57
2019-01-04T18:48:02.224Z,98065.30
2019-01-04T18:50:32.188Z,98063.96
2019-01-04T18:53:01.325Z,98067.48
2019-01-04T18:55:30.422Z,98074.91
2019-01-04T18:57:59.543Z,98065.05
2019-01-04T19:00:28.836Z,98059.70
2019-01-04T19:02:59.024Z,98061.50
2019-01-04T19:05:28.142Z,98064.95
2019-01-04T19:08:00.074Z,98063.84
2019-01-04T19:10:32.944Z,98057.94
2019-01-04T19:13:02.166Z,98052.89
2019-01-04T19:15:31.305Z,98042.84
2019-01-04T19:18:00.399Z,98034.89
2019-01-04T19:20:31.234Z,98027.30
2019-01-04T19:23:00.312Z,98025.52
2019-01-04T19:25:29.431Z,98017.61
2019-01-04T19:27:59.457Z,98018.04
2019-01-04T19:30:33.496Z,98020.09
2019-01-04T19:33:03.704Z,98027.80
2019-01-04T19:35:33.326Z,98014.88
2019-01-04T19:38:04.389Z,98010.64
2019-01-04T19:40:33.636Z,98007.34
2019-01-04T19:43:02.763Z,98004.59
2019-01-04T19:45:31.891Z,98005.21
2019-01-04T19:48:02.396Z,98015.70
2019-01-04T19:50:36.034Z,98013.34
2019-01-04T19:53:06.313Z,98017.04
2019-01-04T19:55:36.032Z,98010.38
2019-01-04T19:58:05.103Z,98011.69
2019-01-04T20:00:40.869Z,98002.31
2019-01-04T20:03:09.993Z,98002.59
2019-01-04T20:06:22.507Z,97993.64
2019-01-04T20:13:24.470Z,98000.42
2019-01-04T20:16:36.551Z,97998.49
2019-01-04T20:19:43.089Z,97998.39
2019-01-04T20:22:32.139Z,97998.02
2019-01-04T20:25:43.840Z,97998.09
2019-01-04T20:28:45.065Z,97998.17
2019-01-04T20:31:51.746Z,98003.47
2019-01-04T20:34:36.378Z,98006.36
2019-01-04T20:37:23.502Z,98018.09
2019-01-04T20:40:10.431Z,98012.13
2019-01-04T20:42:58.505Z,98001.03
2019-01-04T20:45:50.014Z,98003.55
2019-01-04T20:48:50.408Z,98013.39
2019-01-04T20:51:52.552Z,98016.36
2019-01-04T20:54:53.962Z,98014.98
2019-01-04T20:57:44.103Z,98015.41
2019-01-04T21:00:35.899Z,98010.89
2019-01-04T21:03:17.224Z,98019.61
2019-01-04T21:06:28.074Z,98021.83
2019-01-04T21:09:16.564Z,98022.08
2019-01-04T21:12:13.959Z,98023.97
2019-01-04T21:15:03.491Z,98024.80
2019-01-04T21:17:50.183Z,98027.50
2019-01-04T21:20:38.449Z,98033.13
2019-01-04T21:23:26.012Z,98035.50
2019-01-04T21:26:14.063Z,98032.66
2019-01-04T21:28:55.401Z,98038.22
2019-01-04T21:32:01.926Z,98033.17
2019-01-04T21:34:51.638Z,98035.09
2019-01-04T21:37:38.272Z,98034.88
2019-01-04T21:40:32.642Z,98034.25
2019-01-04T21:43:30.806Z,98037.20
2019-01-04T21:46:23.260Z,98028.48
2019-01-04T21:49:14.795Z,98020.59
2019-01-04T21:52:09.745Z,98027.42
2019-01-04T21:54:58.083Z,98026.89
2019-01-04T21:57:45.715Z,98029.44
2019-01-04T22:00:48.933Z,98023.80
2019-01-04T22:03:37.199Z,98018.39
2019-01-04T22:06:25.261Z,98021.77
2019-01-04T22:09:34.468Z,98028.61
2019-01-04T22:12:23.390Z,97634.20
2019-01-04T22:15:09.210Z,98035.67
2019-01-04T22:17:57.316Z,98032.02
2019-01-04T22:20:45.406Z,98028.05
2019-01-04T22:23:37.804Z,98035.67
2019-01-04T22:26:25.239Z,98037.06
2019-01-04T22:29:11.980Z,98034.51
2019-01-04T22:32:12.866Z,98038.07
2019-01-04T22:35:13.406Z,98046.68
2019-01-04T22:38:08.511Z,98036.19
2019-01-04T22:41:02.775Z,98037.77
2019-01-04T22:43:52.850Z,98040.36
2019-01-04T22:46:39.498Z,98040.64
2019-01-04T22:49:29.651Z,98037.06
2019-01-04T22:52:38.413Z,98028.63
2019-01-04T22:55:34.133Z,98026.86
2019-01-04T22:58:20.793Z,98024.31
2019-01-04T23:01:23.925Z,98015.57
2019-01-04T23:04:14.787Z,98010.23
2019-01-04T23:07:11.952Z,98006.19
2019-01-04T23:10:07.993Z,98005.30
2019-01-04T23:13:05.148Z,98008.78
2019-01-04T23:15:51.250Z,98008.41
2019-01-04T23:18:38.856Z,98007.38
2019-01-04T23:22:21.202Z,98003.98
2019-01-04T23:25:09.179Z,98005.81
2019-01-04T23:28:13.533Z,98005.73
2019-01-04T23:31:00.369Z,98003.89
2019-01-04T23:33:58.468Z,98003.77
2019-01-04T23:36:46.096Z,97998.73
2019-01-04T23:39:55.599Z,97994.73
2019-01-04T23:42:37.423Z,97994.41
2019-01-04T23:45:35.357Z,97990.45
2019-01-04T23:48:22.033Z,97986.40
2019-01-04T23:51:27.558Z,97983.09
2019-01-04T23:54:21.569Z,97985.05
2019-01-04T23:57:14.145Z,97974.59
